Time;durP1;ratioP1;P1;durP2;ratioP2;P2;SDS_P1;SDS_P2;PMS_P1;PMS_P2;Temp;Humidity;BMP_temperature;BMP_pressure;BME280_temperature;BME280_humidity;BME280_pressure;Samples;Min_cycle;Max_cycle;Signal;HPM_P1;HPM_P2
2022/03/28 00:00:14;;;;;;;2.23;1.83;;;18.20;49.90;;;;;;5036954;28;20175;-11
2022/03/28 00:02:42;;;;;;;2.20;1.80;;;18.20;50.00;;;;;;5055394;28;20202;-11
2022/03/28 00:05:09;;;;;;;2.17;1.90;;;18.20;50.00;;;;;;5038170;28;20179;-11
2022/03/28 00:07:35;;;;;;;2.40;1.60;;;18.20;49.90;;;;;;5054570;28;20204;-11
2022/03/28 00:10:01;;;;;;;2.60;1.67;;;18.20;49.90;;;;;;5037581;28;20478;-11
2022/03/28 00:12:26;;;;;;;2.20;1.70;;;18.20;49.90;;;;;;5038030;28;20574;-11
2022/03/28 00:14:52;;;;;;;2.27;1.70;;;18.10;49.90;;;;;;5037383;28;20180;-11
2022/03/28 00:17:18;;;;;;;2.87;1.70;;;18.10;50.00;;;;;;5053583;28;20545;-11
2022/03/28 00:19:44;;;;;;;2.17;1.77;;;18.10;49.90;;;;;;5054789;28;20172;-11
2022/03/28 00:22:09;;;;;;;1.77;1.63;;;18.10;49.90;;;;;;5053838;28;20599;-11
2022/03/28 00:24:35;;;;;;;1.97;1.63;;;18.10;49.90;;;;;;5055530;28;20266;-11
2022/03/28 00:27:01;;;;;;;2.00;1.80;;;18.10;49.90;;;;;;5054606;28;20235;-11
2022/03/28 00:29:27;;;;;;;2.07;1.87;;;18.10;49.90;;;;;;5037964;28;20259;-11
2022/03/28 00:31:52;;;;;;;1.93;1.73;;;18.10;49.80;;;;;;5054801;28;20604;-11
2022/03/28 00:34:23;;;;;;;3.47;1.90;;;18.10;49.80;;;;;;5036933;28;20175;-11
2022/03/28 00:36:50;;;;;;;2.10;1.90;;;18.10;49.90;;;;;;5054653;28;20588;-11
2022/03/28 00:39:19;;;;;;;2.30;1.83;;;18.10;49.80;;;;;;5053978;28;20498;-11
2022/03/28 00:41:46;;;;;;;2.00;1.80;;;18.10;49.80;;;;;;5053868;28;20423;-11
2022/03/28 00:44:12;;;;;;;2.10;1.67;;;18.10;49.80;;;;;;5036295;28;20172;-11
2022/03/28 00:46:39;;;;;;;2.30;1.90;;;18.10;49.80;;;;;;5036466;28;20207;-11
2022/03/28 00:49:04;;;;;;;2.13;1.93;;;18.10;49.80;;;;;;5037755;28;20170;-11
2022/03/28 00:51:31;;;;;;;2.13;1.83;;;18.00;49.80;;;;;;5054293;28;20224;-11
2022/03/28 00:53:58;;;;;;;2.20;1.87;;;18.00;49.70;;;;;;5037859;28;20194;-11
2022/03/28 00:56:25;;;;;;;2.03;1.67;;;18.00;49.80;;;;;;5055472;28;20226;-11
2022/03/28 00:58:50;;;;;;;1.70;1.60;;;18.00;49.80;;;;;;5054834;28;20203;-11
2022/03/28 01:01:16;;;;;;;1.87;1.70;;;18.00;49.70;;;;;;5053481;28;20203;-11
2022/03/28 01:03:42;;;;;;;2.00;1.80;;;18.00;49.80;;;;;;5053430;28;20571;-11
2022/03/28 01:06:08;;;;;;;2.07;1.87;;;18.00;49.80;;;;;;5052284;28;20231;-11
2022/03/28 01:08:34;;;;;;;2.00;1.80;;;18.00;49.80;;;;;;5054852;28;20205;-11
2022/03/28 01:11:06;;;;;;;2.40;1.53;;;18.00;49.70;;;;;;5053053;28;20237;-11
2022/03/28 01:13:37;;;;;;;2.60;1.80;;;18.00;49.70;;;;;;5035264;28;20199;-11
2022/03/28 01:16:04;;;;;;;1.90;1.70;;;18.00;49.80;;;;;;5053609;28;20201;-11
2022/03/28 01:18:30;;;;;;;2.23;1.80;;;18.00;49.80;;;;;;5053737;28;20251;-11
2022/03/28 01:20:57;;;;;;;2.03;1.60;;;18.00;49.80;;;;;;5053581;28;20224;-11
2022/03/28 01:23:23;;;;;;;2.50;1.60;;;18.00;49.80;;;;;;5053453;28;20170;-11
2022/03/28 01:25:51;;;;;;;1.80;1.53;;;18.00;49.80;;;;;;5054567;28;20282;-11
2022/03/28 01:28:19;;;;;;;3.53;1.97;;;17.90;50.10;;;;;;5036762;28;20183;-11
2022/03/28 01:30:54;;;;;;;1.90;1.70;;;17.90;49.80;;;;;;5036277;28;20254;-11
2022/03/28 01:33:21;;;;;;;1.90;1.70;;;17.90;49.80;;;;;;5036397;28;20549;-11
2022/03/28 01:35:47;;;;;;;1.83;1.73;;;17.90;49.80;;;;;;5054886;28;20179;-11
2022/03/28 01:38:14;;;;;;;3.70;1.80;;;17.90;49.80;;;;;;5052911;28;20389;-11
2022/03/28 01:40:45;;;;;;;2.07;1.87;;;17.90;49.80;;;;;;5036839;28;20206;-11
2022/03/28 01:43:12;;;;;;;1.77;1.60;;;17.90;49.80;;;;;;5054595;28;20172;-11
2022/03/28 01:45:38;;;;;;;1.83;1.70;;;17.90;49.80;;;;;;5054472;28;20181;-11
2022/03/28 01:48:05;;;;;;;3.03;1.70;;;17.90;49.70;;;;;;5057992;28;20178;-11
2022/03/28 01:50:31;;;;;;;1.90;1.70;;;17.90;49.70;;;;;;5056573;28;20193;-11
2022/03/28 01:52:57;;;;;;;2.20;1.73;;;17.90;49.70;;;;;;5056092;28;20423;-11
2022/03/28 01:55:26;;;;;;;1.60;1.50;;;17.90;49.70;;;;;;5056123;28;20171;-11
2022/03/28 01:57:52;;;;;;;1.93;1.47;;;17.90;49.70;;;;;;5056558;28;20170;-11
2022/03/28 02:00:21;;;;;;;2.20;1.73;;;17.90;49.70;;;;;;5056176;28;20172;-11
2022/03/28 02:02:47;;;;;;;2.20;2.00;;;17.90;49.70;;;;;;5039711;28;20274;-11
2022/03/28 02:05:16;;;;;;;2.13;1.93;;;17.90;49.70;;;;;;5039181;28;20620;-11
2022/03/28 02:07:46;;;;;;;2.13;1.77;;;17.90;49.60;;;;;;5057501;28;20201;-11
2022/03/28 02:10:15;;;;;;;1.50;1.40;;;17.90;49.60;;;;;;5057625;28;20167;-11
2022/03/28 02:12:41;;;;;;;1.73;1.57;;;17.90;49.60;;;;;;5040658;28;20203;-11
2022/03/28 02:15:10;;;;;;;2.27;1.83;;;17.90;49.60;;;;;;5040032;28;20232;-11
2022/03/28 02:17:36;;;;;;;2.20;1.60;;;17.90;49.60;;;;;;5040408;28;20262;-11
2022/03/28 02:20:05;;;;;;;1.70;1.60;;;17.90;49.60;;;;;;5057337;28;20201;-11
2022/03/28 02:22:31;;;;;;;1.80;1.53;;;17.90;49.50;;;;;;5057750;28;20198;-11
2022/03/28 02:24:58;;;;;;;2.07;1.87;;;17.90;49.60;;;;;;5040148;28;20511;-11
2022/03/28 02:27:23;;;;;;;1.77;1.67;;;17.90;49.50;;;;;;5040524;28;20216;-11
2022/03/28 02:29:49;;;;;;;1.90;1.70;;;17.90;49.50;;;;;;5057626;28;20172;-11
2022/03/28 02:32:15;;;;;;;2.47;1.80;;;17.90;49.50;;;;;;5057648;28;20166;-11
2022/03/28 02:34:41;;;;;;;2.13;1.73;;;17.90;49.50;;;;;;5056725;28;20274;-11
2022/03/28 02:37:07;;;;;;;1.80;1.70;;;17.90;49.50;;;;;;5057402;28;20258;-11
2022/03/28 02:39:32;;;;;;;2.20;1.90;;;17.90;49.50;;;;;;5039295;28;20271;-11
2022/03/28 02:41:58;;;;;;;2.93;1.70;;;17.90;49.50;;;;;;5039186;28;20344;-11
2022/03/28 02:44:24;;;;;;;2.33;1.70;;;17.80;49.40;;;;;;5039567;28;20226;-11
2022/03/28 02:46:50;;;;;;;1.70;1.60;;;17.80;49.50;;;;;;5038498;28;20364;-11
2022/03/28 02:49:18;;;;;;;1.90;1.63;;;17.90;49.50;;;;;;5055774;28;20185;-11
2022/03/28 02:51:44;;;;;;;1.70;1.60;;;17.90;49.50;;;;;;5038904;28;20469;-11
2022/03/28 02:54:10;;;;;;;2.77;1.93;;;17.90;49.50;;;;;;5038556;28;20649;-11
2022/03/28 02:56:36;;;;;;;1.83;1.60;;;17.80;49.40;;;;;;5056189;28;20182;-11
2022/03/28 02:59:02;;;;;;;2.53;1.80;;;17.80;49.40;;;;;;5055582;28;20176;-11
2022/03/28 03:01:28;;;;;;;1.77;1.67;;;17.80;49.40;;;;;;5056351;28;20219;-11
2022/03/28 03:03:54;;;;;;;1.70;1.60;;;17.80;49.40;;;;;;5056195;28;20669;-11
2022/03/28 03:06:19;;;;;;;2.00;1.80;;;17.80;49.30;;;;;;5056850;28;20207;-11
2022/03/28 03:08:45;;;;;;;1.60;1.50;;;17.80;49.30;;;;;;5057490;28;20265;-11
2022/03/28 03:11:11;;;;;;;3.10;1.90;;;17.80;49.30;;;;;;5055344;28;20166;-11
2022/03/28 03:13:37;;;;;;;2.10;1.90;;;17.80;49.30;;;;;;5037489;28;20190;-11
2022/03/28 03:16:06;;;;;;;1.93;1.73;;;17.80;49.30;;;;;;5055930;28;20194;-11
2022/03/28 03:18:31;;;;;;;1.97;1.73;;;17.80;49.30;;;;;;5038315;28;20261;-11
2022/03/28 03:20:59;;;;;;;2.20;1.87;;;17.80;49.30;;;;;;5055860;28;20259;-11
2022/03/28 03:23:25;;;;;;;1.83;1.63;;;17.80;49.30;;;;;;5055232;28;20170;-11
2022/03/28 03:25:51;;;;;;;2.20;2.00;;;17.80;49.30;;;;;;5056202;28;20297;-11
2022/03/28 03:28:17;;;;;;;1.63;1.53;;;17.80;49.30;;;;;;5056385;28;20440;-11
2022/03/28 03:30:44;;;;;;;1.80;1.70;;;17.80;49.20;;;;;;5038666;28;20175;-11
2022/03/28 03:33:10;;;;;;;2.33;1.80;;;17.80;49.20;;;;;;5057613;28;20211;-11
2022/03/28 03:35:36;;;;;;;2.17;1.80;;;17.70;49.20;;;;;;5058682;28;20192;-11
2022/03/28 03:38:01;;;;;;;1.73;1.60;;;17.70;49.20;;;;;;5041400;28;20322;-11
2022/03/28 03:40:27;;;;;;;1.87;1.70;;;17.70;49.20;;;;;;5041277;28;20174;-11
2022/03/28 03:42:53;;;;;;;1.73;1.60;;;17.70;49.20;;;;;;5040654;28;20687;-11
2022/03/28 03:45:19;;;;;;;2.10;1.90;;;17.70;49.20;;;;;;5058033;28;20263;-11
2022/03/28 03:47:44;;;;;;;1.87;1.67;;;17.60;49.30;;;;;;5057657;28;20670;-11
2022/03/28 03:50:10;;;;;;;2.00;1.80;;;17.60;49.30;;;;;;5058091;28;20194;-11
2022/03/28 03:52:36;;;;;;;3.40;1.77;;;17.60;49.30;;;;;;5040701;28;20180;-11
2022/03/28 03:55:02;;;;;;;2.00;1.80;;;17.60;49.30;;;;;;5058451;28;20172;-11
2022/03/28 03:57:30;;;;;;;2.13;1.73;;;17.50;49.30;;;;;;5058038;28;20226;-11
2022/03/28 03:59:56;;;;;;;2.03;1.83;;;17.50;49.30;;;;;;5040678;28;20174;-11
2022/03/28 04:02:22;;;;;;;2.77;2.10;;;17.50;49.30;;;;;;5041005;28;20194;-11
2022/03/28 04:04:47;;;;;;;2.27;2.03;;;17.50;49.30;;;;;;5057411;28;20536;-11
2022/03/28 04:07:13;;;;;;;1.97;1.67;;;17.70;49.20;;;;;;5058358;28;20234;-11
2022/03/28 04:09:39;;;;;;;2.57;1.80;;;19.70;47.20;;;;;;5056955;28;20153;-11
2022/03/28 04:12:05;;;;;;;2.27;1.90;;;21.10;45.20;;;;;;5039501;28;20334;-11
2022/03/28 04:14:31;;;;;;;1.67;1.57;;;22.40;43.40;;;;;;5040407;28;20184;-11
2022/03/28 04:17:03;;;;;;;2.13;1.80;;;22.90;42.60;;;;;;5057656;28;20383;-11
2022/03/28 04:19:28;;;;;;;2.27;1.77;;;23.00;42.10;;;;;;5038205;28;20187;-11
2022/03/28 04:21:54;;;;;;;2.00;1.80;;;23.20;41.90;;;;;;5054576;28;20172;-11
2022/03/28 04:24:20;;;;;;;2.40;1.90;;;23.50;41.50;;;;;;5054518;28;20594;-11
2022/03/28 04:26:46;;;;;;;2.10;1.90;;;23.60;41.40;;;;;;5036358;28;20266;-11
2022/03/28 04:29:12;;;;;;;2.07;1.77;;;23.60;41.30;;;;;;5054608;28;20263;-11
2022/03/28 04:31:40;;;;;;;2.10;1.90;;;23.40;41.30;;;;;;5036418;28;20186;-11
2022/03/28 04:34:07;;;;;;;2.10;1.90;;;23.30;41.40;;;;;;5053300;28;20163;-11
2022/03/28 04:36:34;;;;;;;2.27;1.90;;;23.10;41.60;;;;;;5038604;28;20185;-11
2022/03/28 04:39:00;;;;;;;2.13;1.80;;;22.80;41.80;;;;;;5056908;28;20176;-11
2022/03/28 04:41:26;;;;;;;2.10;1.90;;;22.40;42.00;;;;;;5055918;28;20201;-11
2022/03/28 04:43:52;;;;;;;2.40;2.20;;;22.20;42.80;;;;;;5038740;28;20195;-11
2022/03/28 04:46:18;;;;;;;2.10;1.90;;;22.00;42.70;;;;;;5056889;28;20198;-11
2022/03/28 04:48:44;;;;;;;2.27;2.07;;;21.70;42.90;;;;;;5056893;28;20259;-11
2022/03/28 04:51:09;;;;;;;2.13;1.93;;;21.40;43.20;;;;;;5038917;28;20272;-11
2022/03/28 04:53:35;;;;;;;2.60;2.00;;;21.20;43.50;;;;;;5056065;28;20185;-11
2022/03/28 04:56:01;;;;;;;2.30;2.10;;;20.90;43.80;;;;;;5056435;28;20174;-11
2022/03/28 04:58:27;;;;;;;2.17;1.90;;;20.70;44.10;;;;;;5055457;28;20161;-11
2022/03/28 05:00:53;;;;;;;1.90;1.80;;;20.50;44.30;;;;;;5038494;28;20237;-11
2022/03/28 05:03:19;;;;;;;2.30;1.90;;;20.30;44.60;;;;;;5039138;28;20182;-11
2022/03/28 05:05:45;;;;;;;2.83;1.80;;;20.10;44.80;;;;;;5053999;28;20588;-11
2022/03/28 05:08:11;;;;;;;2.40;1.97;;;20.00;45.00;;;;;;5054825;28;20584;-11
2022/03/28 05:10:36;;;;;;;2.37;1.87;;;19.90;45.10;;;;;;5035948;28;20556;-11
2022/03/28 05:13:03;;;;;;;2.10;1.90;;;19.70;45.20;;;;;;5038650;28;20193;-11
2022/03/28 05:15:31;;;;;;;2.43;2.00;;;19.60;45.40;;;;;;5038893;28;20446;-11
2022/03/28 05:17:57;;;;;;;2.03;1.83;;;19.50;45.50;;;;;;5055838;28;20481;-11
2022/03/28 05:20:23;;;;;;;2.30;1.90;;;19.40;45.70;;;;;;5038635;28;20171;-11
2022/03/28 05:22:49;;;;;;;2.40;2.00;;;19.30;45.80;;;;;;5040103;28;20183;-11
2022/03/28 05:25:15;;;;;;;4.53;1.90;;;19.30;46.00;;;;;;5036324;28;20404;-11
2022/03/28 05:27:45;;;;;;;2.33;2.13;;;19.10;46.10;;;;;;5053476;28;20209;-11
2022/03/28 05:30:13;;;;;;;2.63;1.80;;;19.00;46.30;;;;;;5054539;28;20180;-11
2022/03/28 05:32:39;;;;;;;2.20;2.00;;;18.90;46.40;;;;;;5035870;28;20172;-11
2022/03/28 05:35:06;;;;;;;2.03;1.80;;;18.80;46.60;;;;;;5053994;28;20199;-11
2022/03/28 05:37:32;;;;;;;4.17;2.20;;;18.70;46.80;;;;;;5054323;28;20189;-11
2022/03/28 05:39:58;;;;;;;2.63;1.93;;;18.70;46.90;;;;;;5054878;28;20236;-11
2022/03/28 05:42:24;;;;;;;2.40;2.20;;;18.60;46.90;;;;;;5054609;28;20184;-11
2022/03/28 05:44:50;;;;;;;4.40;2.10;;;18.60;47.10;;;;;;5037322;28;20296;-11
2022/03/28 05:47:16;;;;;;;3.27;2.00;;;18.50;47.10;;;;;;5037520;28;20301;-11
2022/03/28 05:49:41;;;;;;;2.83;1.80;;;18.50;47.20;;;;;;5037824;28;20654;-11
2022/03/28 05:52:07;;;;;;;2.90;2.03;;;18.40;47.30;;;;;;5058285;28;20269;-11
2022/03/28 05:54:33;;;;;;;3.00;2.33;;;18.40;47.30;;;;;;5041490;28;20179;-11
2022/03/28 05:57:00;;;;;;;4.23;2.17;;;18.50;47.30;;;;;;5041599;28;20205;-11
2022/03/28 05:59:26;;;;;;;2.27;2.03;;;18.50;47.20;;;;;;5040974;28;20193;-11
2022/03/28 06:01:52;;;;;;;3.07;2.20;;;18.60;47.10;;;;;;5058889;28;20574;-11
2022/03/28 06:04:18;;;;;;;2.33;2.13;;;18.70;47.00;;;;;;5057666;28;20191;-11
2022/03/28 06:06:44;;;;;;;3.40;2.20;;;18.80;46.90;;;;;;5058741;28;20203;-11
2022/03/28 06:09:10;;;;;;;3.03;2.30;;;18.90;46.90;;;;;;5040783;28;20197;-11
2022/03/28 06:11:36;;;;;;;2.80;2.00;;;19.00;46.90;;;;;;5058455;28;20238;-11
2022/03/28 06:14:03;;;;;;;3.27;2.43;;;19.10;46.70;;;;;;5041116;28;20191;-11
2022/03/28 06:16:29;;;;;;;2.43;1.93;;;19.30;46.60;;;;;;5041120;28;20619;-11
2022/03/28 06:18:55;;;;;;;4.73;2.57;;;19.40;46.40;;;;;;5041050;28;20691;-11
2022/03/28 06:21:21;;;;;;;3.20;2.43;;;19.60;46.30;;;;;;5058194;28;20172;-11
2022/03/28 06:23:47;;;;;;;5.03;2.67;;;19.70;46.00;;;;;;5057617;28;20173;-11
2022/03/28 06:26:12;;;;;;;3.17;2.60;;;19.90;45.90;;;;;;5057924;28;20644;-11
2022/03/28 06:28:40;;;;;;;2.87;2.50;;;20.00;45.70;;;;;;5057723;28;20190;-11
2022/03/28 06:31:06;;;;;;;3.90;2.80;;;20.10;45.60;;;;;;5040140;28;20241;-11
2022/03/28 06:33:33;;;;;;;2.67;2.33;;;20.20;45.50;;;;;;5055700;28;20231;-11
2022/03/28 06:35:59;;;;;;;4.13;2.53;;;20.30;45.40;;;;;;5040324;28;20184;-11
2022/03/28 06:38:24;;;;;;;3.83;2.67;;;20.30;45.30;;;;;;5039484;28;20469;-11
2022/03/28 06:40:50;;;;;;;2.97;2.57;;;20.40;45.20;;;;;;5039712;28;20738;-11
2022/03/28 06:43:16;;;;;;;4.43;2.97;;;20.50;45.20;;;;;;5040113;28;20195;-11
2022/03/28 06:45:43;;;;;;;4.03;2.57;;;20.60;45.00;;;;;;5039955;28;20176;-11
2022/03/28 06:48:08;;;;;;;4.20;2.87;;;20.60;45.00;;;;;;5057595;28;20203;-11
2022/03/28 06:50:34;;;;;;;4.10;2.90;;;20.60;45.00;;;;;;5053751;28;20211;-11
2022/03/28 06:53:01;;;;;;;3.97;3.03;;;20.60;44.90;;;;;;5051530;28;20176;-11
2022/03/28 06:55:27;;;;;;;4.67;2.97;;;20.60;44.90;;;;;;5034229;28;20637;-11
2022/03/28 06:57:53;;;;;;;3.20;2.90;;;20.70;44.90;;;;;;5050910;28;20271;-11
2022/03/28 07:00:19;;;;;;;3.20;2.70;;;20.70;44.80;;;;;;5051833;28;20267;-11
2022/03/28 07:02:45;;;;;;;4.03;2.60;;;20.70;44.80;;;;;;5050938;28;20169;-11
2022/03/28 07:05:11;;;;;;;8.17;3.10;;;20.70;44.80;;;;;;5033300;28;20176;-11
2022/03/28 07:07:48;;;;;;;4.20;3.17;;;20.70;44.80;;;;;;5032777;28;20200;-11
2022/03/28 07:10:16;;;;;;;4.50;2.93;;;20.70;44.80;;;;;;5032412;28;20208;-11
2022/03/28 07:12:41;;;;;;;4.20;3.10;;;20.70;44.80;;;;;;5051141;28;20219;-11
2022/03/28 07:15:10;;;;;;;5.27;3.23;;;20.70;44.80;;;;;;5051236;28;20184;-11
2022/03/28 07:17:46;;;;;;;3.20;2.80;;;20.70;44.80;;;;;;5050405;28;20644;-11
2022/03/28 07:20:12;;;;;;;4.67;3.20;;;20.70;44.80;;;;;;5049538;28;20166;-11
2022/03/28 07:22:38;;;;;;;4.03;3.13;;;20.70;44.80;;;;;;5033053;28;20590;-11
2022/03/28 07:25:04;;;;;;;4.90;3.10;;;20.70;44.80;;;;;;5050776;28;20174;-11
2022/03/28 07:27:29;;;;;;;6.47;3.50;;;20.70;44.70;;;;;;5033341;28;20211;-11
2022/03/28 07:29:55;;;;;;;3.77;3.10;;;20.70;44.80;;;;;;5034296;28;20182;-11
2022/03/28 07:32:21;;;;;;;4.30;3.20;;;20.80;44.80;;;;;;5033046;28;20168;-11
2022/03/28 07:34:47;;;;;;;4.00;3.53;;;20.80;44.70;;;;;;5049243;28;20263;-11
2022/03/28 07:37:13;;;;;;;5.00;3.23;;;20.90;44.70;;;;;;5048783;28;20562;-11
2022/03/28 07:39:40;;;;;;;5.70;3.63;;;20.90;44.70;;;;;;5032614;28;20179;-12
2022/03/28 07:42:11;;;;;;;4.50;3.60;;;20.90;44.60;;;;;;5031543;28;20530;-11
2022/03/28 07:44:37;;;;;;;5.17;3.27;;;21.00;44.60;;;;;;5048478;28;20203;-12
2022/03/28 07:47:08;;;;;;;3.60;3.30;;;21.00;44.50;;;;;;5049173;28;20273;-11
2022/03/28 07:49:38;;;;;;;3.70;3.20;;;21.10;44.50;;;;;;5029956;28;20188;-12
2022/03/28 07:52:08;;;;;;;3.40;3.10;;;21.10;44.40;;;;;;5048805;28;20172;-12
2022/03/28 07:54:34;;;;;;;4.63;3.50;;;21.10;44.40;;;;;;5048202;28;20168;-12
2022/03/28 07:57:00;;;;;;;5.60;3.43;;;21.20;44.40;;;;;;5031368;28;20183;-12
2022/03/28 07:59:27;;;;;;;4.33;3.50;;;21.20;44.40;;;;;;5048376;28;20157;-12
2022/03/28 08:01:53;;;;;;;5.97;3.63;;;21.20;44.40;;;;;;5031227;28;20168;-12
2022/03/28 08:04:19;;;;;;;5.23;3.60;;;21.20;44.40;;;;;;5049351;28;20168;-12
2022/03/28 08:06:45;;;;;;;3.40;3.10;;;21.20;44.40;;;;;;5048195;28;20208;-12
2022/03/28 08:09:11;;;;;;;4.17;3.50;;;21.20;44.40;;;;;;5031573;28;20176;-12
2022/03/28 08:11:36;;;;;;;3.87;3.47;;;21.20;44.40;;;;;;5048317;28;20428;-12
2022/03/28 08:14:03;;;;;;;4.40;3.60;;;21.30;44.40;;;;;;5048496;28;20191;-12
2022/03/28 08:16:29;;;;;;;5.30;3.30;;;21.30;44.40;;;;;;5029858;28;20200;-12
2022/03/28 08:18:55;;;;;;;5.03;3.70;;;21.30;44.70;;;;;;5046014;28;20253;-12
2022/03/28 08:21:22;;;;;;;5.10;3.63;;;21.40;44.50;;;;;;5046734;28;20176;-12
2022/03/28 08:23:47;;;;;;;4.67;3.80;;;21.40;44.50;;;;;;5030350;28;20178;-12
2022/03/28 08:26:13;;;;;;;5.00;3.70;;;21.40;44.50;;;;;;5048157;28;20196;-12
2022/03/28 08:28:39;;;;;;;4.00;3.60;;;21.50;44.50;;;;;;5047665;28;20372;-12
2022/03/28 08:31:06;;;;;;;4.50;3.80;;;21.60;44.40;;;;;;5048517;28;20169;-12
2022/03/28 08:33:32;;;;;;;4.60;3.53;;;21.60;44.30;;;;;;5048987;28;20429;-12
2022/03/28 08:35:57;;;;;;;4.07;3.20;;;21.70;44.20;;;;;;5048122;28;20199;-12
2022/03/28 08:38:23;;;;;;;4.77;3.80;;;21.70;44.10;;;;;;5029079;28;20210;-12
2022/03/28 08:40:49;;;;;;;5.17;4.07;;;21.80;44.00;;;;;;5047249;28;20183;-12
2022/03/28 08:43:20;;;;;;;4.80;3.60;;;21.90;44.00;;;;;;5047926;28;20168;-12
2022/03/28 08:45:49;;;;;;;4.60;3.60;;;22.00;44.00;;;;;;5045923;28;20206;-12
2022/03/28 08:48:16;;;;;;;3.70;3.33;;;22.00;44.00;;;;;;5046227;28;20179;-12
2022/03/28 08:50:47;;;;;;;5.37;3.87;;;22.00;44.00;;;;;;5045583;28;20567;-12
2022/03/28 08:53:13;;;;;;;5.93;3.77;;;22.00;44.00;;;;;;5047029;28;20160;-12
2022/03/28 08:55:41;;;;;;;4.50;3.80;;;22.10;44.00;;;;;;5031448;28;20291;-12
2022/03/28 08:58:07;;;;;;;4.03;3.53;;;22.20;44.10;;;;;;5041242;28;20184;-12
2022/03/28 09:00:33;;;;;;;5.13;4.03;;;22.20;44.00;;;;;;5058619;28;20330;-12
2022/03/28 09:03:00;;;;;;;4.37;3.57;;;22.30;44.00;;;;;;5058809;28;20216;-13
2022/03/28 09:05:38;;;;;;;4.27;3.87;;;22.30;44.00;;;;;;5040678;28;20176;-12
2022/03/28 09:08:06;;;;;;;4.10;3.70;;;22.40;43.90;;;;;;5040976;28;20645;-13
2022/03/28 09:10:33;;;;;;;5.23;3.30;;;22.40;43.90;;;;;;5058496;28;20164;-12
2022/03/28 09:13:13;;;;;;;4.53;3.97;;;22.60;43.90;;;;;;5058022;28;20547;-12
2022/03/28 09:15:56;;;;;;;4.93;3.47;;;22.60;43.80;;;;;;5057522;28;20153;-12
2022/03/28 09:18:27;;;;;;;3.63;3.28;;;22.70;44.00;;;;;;5057145;28;20183;-12
2022/03/28 09:21:00;;;;;;;6.33;3.67;;;22.70;43.90;;;;;;5057606;28;20196;-12
2022/03/28 09:23:38;;;;;;;4.88;3.20;;;22.70;44.00;;;;;;5038445;28;20697;-12
2022/03/28 09:26:18;;;;;;;5.88;3.75;;;22.80;43.90;;;;;;5039135;28;20303;-12
2022/03/28 09:29:00;;;;;;;4.38;3.67;;;22.80;43.80;;;;;;5038042;28;20164;-12
2022/03/28 09:31:27;;;;;;;4.65;3.50;;;22.90;43.90;;;;;;5038671;28;20763;-13
2022/03/28 09:34:14;;;;;;;4.72;3.30;;;22.90;43.80;;;;;;5055046;28;20169;-12
2022/03/28 09:36:55;;;;;;;5.32;3.65;;;22.80;43.70;;;;;;5057074;28;20179;-12
2022/03/28 09:39:25;;;;;;;4.22;3.45;;;22.50;43.70;;;;;;5055024;28;20168;-12
2022/03/28 09:42:11;;;;;;;4.72;3.42;;;22.30;43.90;;;;;;5039082;28;20203;-13
2022/03/28 09:44:46;;;;;;;4.50;3.65;;;22.00;44.50;;;;;;5057364;28;20175;-12
2022/03/28 09:47:16;;;;;;;5.88;3.28;;;21.70;44.80;;;;;;5057034;28;20223;-12
2022/03/28 09:49:45;;;;;;;4.70;3.38;;;21.60;45.00;;;;;;5057427;28;20191;-13
2022/03/28 09:52:17;;;;;;;4.38;3.67;;;21.40;45.10;;;;;;5037377;28;20272;-12
2022/03/28 09:55:05;;;;;;;4.60;3.63;;;21.30;45.30;;;;;;5037647;28;20184;-12
2022/03/28 09:57:33;;;;;;;5.05;3.45;;;21.20;45.60;;;;;;5036630;28;20180;-12
2022/03/28 10:00:12;;;;;;;5.40;3.33;;;21.20;45.70;;;;;;5020135;28;20336;-12
2022/03/28 10:02:41;;;;;;;4.88;3.45;;;21.20;45.80;;;;;;5036917;28;20165;-13
2022/03/28 10:05:07;;;;;;;4.78;3.20;;;21.10;45.80;;;;;;5052404;28;20581;-13
2022/03/28 10:07:34;;;;;;;3.95;3.20;;;21.10;45.90;;;;;;5057409;28;20258;-12
2022/03/28 10:10:00;;;;;;;4.82;3.53;;;21.10;45.90;;;;;;5040158;28;20177;-12
2022/03/28 10:12:27;;;;;;;4.30;3.38;;;21.10;45.90;;;;;;5039148;28;20562;-13
2022/03/28 10:15:01;;;;;;;6.43;3.22;;;21.10;46.10;;;;;;5056559;28;20172;-13
2022/03/28 10:17:30;;;;;;;4.47;3.60;;;21.10;46.10;;;;;;5038955;28;20172;-12
2022/03/28 10:19:56;;;;;;;4.05;3.65;;;21.10;46.20;;;;;;5056371;28;20183;-13
2022/03/28 10:22:32;;;;;;;4.85;3.80;;;21.00;46.20;;;;;;5057309;28;20180;-13
2022/03/28 10:25:09;;;;;;;4.53;3.60;;;21.00;46.20;;;;;;5039063;28;20183;-13
2022/03/28 10:27:37;;;;;;;4.37;3.50;;;21.00;46.20;;;;;;5056656;28;20487;-12
2022/03/28 10:30:33;;;;;;;4.43;3.77;;;21.00;46.30;;;;;;5057216;28;20172;-12
2022/03/28 10:33:11;;;;;;;4.20;3.80;;;21.00;46.30;;;;;;5039339;28;20164;-12
2022/03/28 10:35:37;;;;;;;4.63;3.63;;;21.00;46.40;;;;;;5039953;28;20222;-12
2022/03/28 10:38:18;;;;;;;5.60;3.77;;;21.00;46.40;;;;;;5056742;28;20184;-12
2022/03/28 10:41:14;;;;;;;5.63;3.83;;;21.00;46.50;;;;;;5037763;28;20196;-12
2022/03/28 10:43:39;;;;;;;5.43;3.80;;;21.00;46.60;;;;;;5037603;28;20185;-13
2022/03/28 10:46:13;;;;;;;4.60;3.70;;;21.00;46.70;;;;;;5052455;28;22321;-12
2022/03/28 10:48:46;;;;;;;5.00;4.07;;;21.00;46.70;;;;;;5038014;28;20180;-12
2022/03/28 10:51:24;;;;;;;4.20;3.40;;;21.00;46.80;;;;;;5038431;28;20732;-12
2022/03/28 10:53:54;;;;;;;5.23;3.73;;;21.00;46.80;;;;;;5036095;28;20180;-12
2022/03/28 10:56:24;;;;;;;4.57;3.60;;;21.00;46.90;;;;;;5037697;28;20327;-12
2022/03/28 10:58:58;;;;;;;4.97;3.90;;;21.00;46.90;;;;;;5038302;28;20260;-12
2022/03/28 11:01:31;;;;;;;4.80;3.27;;;21.00;47.00;;;;;;5055676;28;20179;-12
2022/03/28 11:04:02;;;;;;;4.20;3.80;;;21.00;47.00;;;;;;5038096;28;20180;-12
2022/03/28 11:06:47;;;;;;;4.00;3.50;;;21.00;47.00;;;;;;5055155;28;20703;-12
2022/03/28 11:09:34;;;;;;;4.40;3.70;;;21.00;47.00;;;;;;5037505;28;20178;-12
2022/03/28 11:12:06;;;;;;;6.00;3.57;;;21.00;47.10;;;;;;5037051;28;20204;-12
2022/03/28 11:14:51;;;;;;;3.80;3.10;;;21.00;47.10;;;;;;5036111;28;20187;-12
2022/03/28 11:17:25;;;;;;;4.43;3.73;;;21.00;47.10;;;;;;5053207;28;20210;-12
2022/03/28 11:20:03;;;;;;;5.20;3.47;;;21.00;47.10;;;;;;5035636;28;20183;-12
2022/03/28 11:23:08;;;;;;;5.77;3.50;;;21.00;47.20;;;;;;5037197;28;20411;-12
2022/03/28 11:25:46;;;;;;;4.67;3.80;;;21.00;47.20;;;;;;5040801;28;20290;-12
2022/03/28 11:28:22;;;;;;;5.27;3.60;;;21.00;47.30;;;;;;5055209;28;20187;-12
2022/03/28 11:31:07;;;;;;;5.20;3.63;;;21.00;47.30;;;;;;5038901;28;20556;-12
2022/03/28 11:33:37;;;;;;;3.83;3.30;;;20.90;47.30;;;;;;5055282;28;20152;-12
2022/03/28 11:36:08;;;;;;;4.17;3.30;;;21.00;47.30;;;;;;5038421;28;20265;-12
2022/03/28 11:38:40;;;;;;;3.93;3.50;;;21.00;47.40;;;;;;5037013;28;20244;-12
2022/03/28 11:41:08;;;;;;;4.20;3.47;;;21.00;47.50;;;;;;5036763;28;20177;-12
2022/03/28 11:43:38;;;;;;;3.83;3.23;;;20.90;47.50;;;;;;5037523;28;20623;-12
2022/03/28 11:46:18;;;;;;;4.50;3.50;;;21.00;47.50;;;;;;5036345;28;20762;-12
2022/03/28 11:49:01;;;;;;;3.83;3.53;;;21.00;47.60;;;;;;5037246;28;20589;-11
2022/03/28 11:51:29;;;;;;;3.97;3.30;;;21.00;47.60;;;;;;5054129;28;20204;-12
2022/03/28 11:54:02;;;;;;;3.70;3.30;;;21.00;47.60;;;;;;5035818;28;20182;-12
2022/03/28 11:56:30;;;;;;;6.17;3.50;;;21.00;47.70;;;;;;5053638;28;20167;-12
2022/03/28 11:59:01;;;;;;;3.53;3.20;;;21.00;47.70;;;;;;5053879;28;20183;-11
2022/03/28 12:01:28;;;;;;;4.57;3.40;;;21.00;47.70;;;;;;5054118;28;20202;-11
2022/03/28 12:03:54;;;;;;;4.07;3.43;;;21.00;47.70;;;;;;5052892;28;20276;-11
2022/03/28 12:06:46;;;;;;;4.07;3.40;;;21.00;48.20;;;;;;5036521;28;20300;-11
2022/03/28 12:09:20;;;;;;;4.37;3.73;;;21.00;47.80;;;;;;5033015;28;20198;-12
2022/03/28 12:11:52;;;;;;;3.87;3.20;;;21.00;47.80;;;;;;5053699;28;20216;-11
2022/03/28 12:14:18;;;;;;;3.70;3.30;;;21.00;47.80;;;;;;5036952;28;20180;-11
2022/03/28 12:16:46;;;;;;;5.30;3.10;;;21.00;47.80;;;;;;5054284;28;20165;-11
2022/03/28 12:19:28;;;;;;;4.90;3.67;;;21.00;47.80;;;;;;5054580;28;20160;-11
2022/03/28 12:21:56;;;;;;;3.93;3.40;;;21.00;47.90;;;;;;5055623;28;20191;-11
2022/03/28 12:24:24;;;;;;;3.33;3.03;;;21.00;47.90;;;;;;5037089;28;20165;-12
2022/03/28 12:26:53;;;;;;;4.43;3.30;;;21.00;47.90;;;;;;5053835;28;20207;-11
2022/03/28 12:29:19;;;;;;;4.63;3.40;;;21.00;48.00;;;;;;5037756;28;20263;-11
2022/03/28 12:31:47;;;;;;;3.40;3.10;;;21.00;48.00;;;;;;5036599;28;20164;-11
2022/03/28 12:34:15;;;;;;;3.63;3.33;;;21.00;48.00;;;;;;5053831;28;20168;-11
2022/03/28 12:36:47;;;;;;;4.37;3.27;;;21.00;48.00;;;;;;5053635;28;20177;-12
2022/03/28 12:39:13;;;;;;;4.00;3.10;;;21.00;48.10;;;;;;5053657;28;20577;-11
2022/03/28 12:41:47;;;;;;;4.30;3.30;;;21.00;48.10;;;;;;5054135;28;20172;-11
2022/03/28 12:44:18;;;;;;;4.10;3.53;;;21.00;48.10;;;;;;5053887;28;20168;-11
2022/03/28 12:46:45;;;;;;;3.30;3.00;;;21.00;48.20;;;;;;5054073;28;20196;-11
2022/03/28 12:49:17;;;;;;;4.77;3.70;;;21.00;48.20;;;;;;5036790;28;20171;-11
2022/03/28 12:51:43;;;;;;;5.40;3.50;;;21.00;48.20;;;;;;5054000;28;20144;-12
2022/03/28 12:54:20;;;;;;;3.93;3.30;;;21.00;48.20;;;;;;5053635;28;20681;-11